sensor_id;sensor_type;location;lat;lon;timestamp;pressure;altitude;pressure_sealevel;temperature;humidity
1616;BME280;801;47.982;7.810;2023-03-25T00:01:38;98256.59;;;11.22;100.00
1616;BME280;801;47.982;7.810;2023-03-25T00:04:05;98249.91;;;11.15;100.00
1616;BME280;801;47.982;7.810;2023-03-25T00:06:32;98249.34;;;11.18;100.00
1616;BME280;801;47.982;7.810;2023-03-25T00:09:00;98257.94;;;11.30;100.00
1616;BME280;801;47.982;7.810;2023-03-25T00:11:28;98252.34;;;11.16;100.00
1616;BME280;801;47.982;7.810;2023-03-25T00:13:54;98249.63;;;11.21;100.00
1616;BME280;801;47.982;7.810;2023-03-25T00:16:21;98238.34;;;11.19;100.00
1616;BME280;801;47.982;7.810;2023-03-25T00:18:47;98241.03;;;11.14;100.00
1616;BME280;801;47.982;7.810;2023-03-25T00:21:14;98243.19;;;11.02;100.00
1616;BME280;801;47.982;7.810;2023-03-25T00:23:42;98239.97;;;11.05;100.00
1616;BME280;801;47.982;7.810;2023-03-25T00:26:08;98244.81;;;11.03;100.00
1616;BME280;801;47.982;7.810;2023-03-25T00:28:36;98209.28;;;11.11;100.00
1616;BME280;801;47.982;7.810;2023-03-25T00:31:05;98211.72;;;11.02;100.00
1616;BME280;801;47.982;7.810;2023-03-25T00:33:32;98208.53;;;11.06;100.00
1616;BME280;801;47.982;7.810;2023-03-25T00:35:59;98210.09;;;11.12;100.00
1616;BME280;801;47.982;7.810;2023-03-25T00:38:28;98228.97;;;11.01;100.00
1616;BME280;801;47.982;7.810;2023-03-25T00:41:07;98212.53;;;11.13;100.00
1616;BME280;801;47.982;7.810;2023-03-25T00:43:34;98228.69;;;11.08;100.00
1616;BME280;801;47.982;7.810;2023-03-25T00:46:00;98223.31;;;11.03;100.00
1616;BME280;801;47.982;7.810;2023-03-25T00:48:27;98201.81;;;10.93;100.00
1616;BME280;801;47.982;7.810;2023-03-25T00:50:53;98216.88;;;10.84;100.00
1616;BME280;801;47.982;7.810;2023-03-25T00:53:20;98218.75;;;10.88;100.00
1616;BME280;801;47.982;7.810;2023-03-25T00:55:46;98241.59;;;10.80;100.00
1616;BME280;801;47.982;7.810;2023-03-25T00:58:14;98235.44;;;10.70;100.00
1616;BME280;801;47.982;7.810;2023-03-25T01:00:41;98263.41;;;10.74;100.00
1616;BME280;801;47.982;7.810;2023-03-25T01:03:07;98248.59;;;10.82;100.00
1616;BME280;801;47.982;7.810;2023-03-25T01:05:34;98245.13;;;10.81;100.00
1616;BME280;801;47.982;7.810;2023-03-25T01:08:00;98248.63;;;10.61;100.00
1616;BME280;801;47.982;7.810;2023-03-25T01:10:27;98230.59;;;10.67;100.00
1616;BME280;801;47.982;7.810;2023-03-25T01:12:54;98235.97;;;10.77;100.00
1616;BME280;801;47.982;7.810;2023-03-25T01:15:21;98228.19;;;10.70;100.00
1616;BME280;801;47.982;7.810;2023-03-25T01:17:48;98227.94;;;10.72;100.00
1616;BME280;801;47.982;7.810;2023-03-25T01:20:15;98227.38;;;10.65;100.00
1616;BME280;801;47.982;7.810;2023-03-25T01:22:41;98230.06;;;10.75;100.00
1616;BME280;801;47.982;7.810;2023-03-25T01:25:08;98231.13;;;10.69;100.00
1616;BME280;801;47.982;7.810;2023-03-25T01:27:34;98229.53;;;10.83;100.00
1616;BME280;801;47.982;7.810;2023-03-25T01:30:01;98225.78;;;10.74;100.00
1616;BME280;801;47.982;7.810;2023-03-25T01:32:29;98227.91;;;10.62;100.00
1616;BME280;801;47.982;7.810;2023-03-25T01:34:55;98228.19;;;10.70;100.00
1616;BME280;801;47.982;7.810;2023-03-25T01:37:22;98228.44;;;10.79;100.00
1616;BME280;801;47.982;7.810;2023-03-25T01:39:49;98231.41;;;10.77;100.00
1616;BME280;801;47.982;7.810;2023-03-25T01:42:16;98233.81;;;10.79;100.00
1616;BME280;801;47.982;7.810;2023-03-25T01:45:12;98231.66;;;10.71;100.00
1616;BME280;801;47.982;7.810;2023-03-25T01:47:42;98204.25;;;10.84;100.00
1616;BME280;801;47.982;7.810;2023-03-25T01:50:10;98227.38;;;10.85;100.00
1616;BME280;801;47.982;7.810;2023-03-25T01:52:40;98225.22;;;10.77;100.00
1616;BME280;801;47.982;7.810;2023-03-25T01:55:09;98249.94;;;10.69;100.00
1616;BME280;801;47.982;7.810;2023-03-25T01:57:38;98236.78;;;10.47;100.00
1616;BME280;801;47.982;7.810;2023-03-25T02:00:09;98258.28;;;10.36;100.00
1616;BME280;801;47.982;7.810;2023-03-25T02:02:37;98267.06;;;10.22;100.00
1616;BME280;801;47.982;7.810;2023-03-25T02:05:07;98286.63;;;10.07;100.00
1616;BME280;801;47.982;7.810;2023-03-25T02:07:39;98283.81;;;9.71;100.00
1616;BME280;801;47.982;7.810;2023-03-25T02:10:08;98273.69;;;9.88;100.00
1616;BME280;801;47.982;7.810;2023-03-25T02:12:35;98281.59;;;9.52;100.00
1616;BME280;801;47.982;7.810;2023-03-25T02:15:04;98269.28;;;9.56;100.00
1616;BME280;801;47.982;7.810;2023-03-25T02:17:39;98251.53;;;9.50;100.00
1616;BME280;801;47.982;7.810;2023-03-25T02:20:43;98227.84;;;9.32;100.00
1616;BME280;801;47.982;7.810;2023-03-25T02:23:39;98249.78;;;9.24;100.00
1616;BME280;801;47.982;7.810;2023-03-25T02:26:36;98233.16;;;9.22;100.00
1616;BME280;801;47.982;7.810;2023-03-25T02:29:24;98253.16;;;9.04;100.00
1616;BME280;801;47.982;7.810;2023-03-25T02:32:04;98276.13;;;8.94;100.00
1616;BME280;801;47.982;7.810;2023-03-25T02:34:49;98279.91;;;8.93;100.00
1616;BME280;801;47.982;7.810;2023-03-25T02:40:25;98297.25;;;8.86;100.00
1616;BME280;801;47.982;7.810;2023-03-25T02:42:57;98304.09;;;8.71;100.00
1616;BME280;801;47.982;7.810;2023-03-25T02:45:29;98305.31;;;8.59;100.00
1616;BME280;801;47.982;7.810;2023-03-25T02:48:01;98297.19;;;8.76;100.00
1616;BME280;801;47.982;7.810;2023-03-25T02:50:32;98303.16;;;8.56;100.00
1616;BME280;801;47.982;7.810;2023-03-25T02:53:03;98304.72;;;8.51;100.00
1616;BME280;801;47.982;7.810;2023-03-25T02:55:34;98290.75;;;8.44;100.00
1616;BME280;801;47.982;7.810;2023-03-25T02:58:04;98266.53;;;8.39;100.00
1616;BME280;801;47.982;7.810;2023-03-25T03:00:34;98278.94;;;8.45;100.00
1616;BME280;801;47.982;7.810;2023-03-25T03:03:04;98283.34;;;8.57;100.00
1616;BME280;801;47.982;7.810;2023-03-25T03:05:32;98301.44;;;8.44;100.00
1616;BME280;801;47.982;7.810;2023-03-25T03:08:11;98314.28;;;8.42;100.00
1616;BME280;801;47.982;7.810;2023-03-25T03:10:48;98319.13;;;8.23;100.00
1616;BME280;801;47.982;7.810;2023-03-25T03:13:24;98307.53;;;8.40;100.00
1616;BME280;801;47.982;7.810;2023-03-25T03:15:58;98308.19;;;8.25;100.00
1616;BME280;801;47.982;7.810;2023-03-25T03:18:39;98303.38;;;8.27;100.00
1616;BME280;801;47.982;7.810;2023-03-25T03:21:12;98322.69;;;8.29;100.00
1616;BME280;801;47.982;7.810;2023-03-25T03:23:49;98303.25;;;8.17;100.00
1616;BME280;801;47.982;7.810;2023-03-25T03:26:26;98296.31;;;8.16;100.00
1616;BME280;801;47.982;7.810;2023-03-25T03:28:57;98289.94;;;8.22;100.00
1616;BME280;801;47.982;7.810;2023-03-25T03:31:28;98304.28;;;8.10;100.00
1616;BME280;801;47.982;7.810;2023-03-25T03:34:01;98302.09;;;8.07;100.00
1616;BME280;801;47.982;7.810;2023-03-25T03:36:32;98308.63;;;8.17;100.00
1616;BME280;801;47.982;7.810;2023-03-25T03:39:05;98328.28;;;8.05;100.00
1616;BME280;801;47.982;7.810;2023-03-25T03:41:37;98317.13;;;8.08;100.00
1616;BME280;801;47.982;7.810;2023-03-25T03:44:10;98322.66;;;8.02;100.00
1616;BME280;801;47.982;7.810;2023-03-25T03:46:42;98313.41;;;8.15;100.00
1616;BME280;801;47.982;7.810;2023-03-25T03:49:15;98310.53;;;8.21;100.00
1616;BME280;801;47.982;7.810;2023-03-25T03:51:47;98300.53;;;8.11;100.00
1616;BME280;801;47.982;7.810;2023-03-25T03:54:19;98308.94;;;8.20;100.00
1616;BME280;801;47.982;7.810;2023-03-25T03:56:51;98308.41;;;8.23;100.00
1616;BME280;801;47.982;7.810;2023-03-25T03:59:25;98315.88;;;8.21;100.00
1616;BME280;801;47.982;7.810;2023-03-25T04:01:56;98302.81;;;8.25;100.00
1616;BME280;801;47.982;7.810;2023-03-25T04:04:25;98298.53;;;8.24;100.00
1616;BME280;801;47.982;7.810;2023-03-25T04:06:55;98298.03;;;8.27;100.00
1616;BME280;801;47.982;7.810;2023-03-25T04:09:26;98309.06;;;8.30;100.00
1616;BME280;801;47.982;7.810;2023-03-25T04:12:02;98298.00;;;8.49;100.00
1616;BME280;801;47.982;7.810;2023-03-25T04:14:31;98307.75;;;8.33;100.00
1616;BME280;801;47.982;7.810;2023-03-25T04:16:57;98306.41;;;8.36;100.00
1616;BME280;801;47.982;7.810;2023-03-25T04:19:24;98312.78;;;8.29;100.00
1616;BME280;801;47.982;7.810;2023-03-25T04:21:51;98311.03;;;8.40;100.00
1616;BME280;801;47.982;7.810;2023-03-25T04:24:18;98325.56;;;8.44;100.00
1616;BME280;801;47.982;7.810;2023-03-25T04:26:44;98339.78;;;8.28;100.00
1616;BME280;801;47.982;7.810;2023-03-25T04:29:13;98330.88;;;8.17;100.00
1616;BME280;801;47.982;7.810;2023-03-25T04:31:39;98332.16;;;8.15;100.00
1616;BME280;801;47.982;7.810;2023-03-25T04:34:11;98337.56;;;8.20;100.00
1616;BME280;801;47.982;7.810;2023-03-25T04:36:39;98330.97;;;8.27;100.00
1616;BME280;801;47.982;7.810;2023-03-25T04:39:07;98336.06;;;8.29;100.00
1616;BME280;801;47.982;7.810;2023-03-25T04:41:34;98314.28;;;8.20;100.00
1616;BME280;801;47.982;7.810;2023-03-25T04:44:00;98325.31;;;8.24;100.00
1616;BME280;801;47.982;7.810;2023-03-25T04:46:28;98324.19;;;8.20;100.00
1616;BME280;801;47.982;7.810;2023-03-25T04:48:55;98316.47;;;8.01;100.00
1616;BME280;801;47.982;7.810;2023-03-25T04:51:22;98311.69;;;7.81;100.00
1616;BME280;801;47.982;7.810;2023-03-25T04:53:48;98322.16;;;7.83;100.00
1616;BME280;801;47.982;7.810;2023-03-25T04:56:16;98327.44;;;7.78;100.00
1616;BME280;801;47.982;7.810;2023-03-25T04:58:43;98327.31;;;7.67;100.00
1616;BME280;801;47.982;7.810;2023-03-25T05:01:19;98329.56;;;7.76;100.00
1616;BME280;801;47.982;7.810;2023-03-25T05:03:48;98328.06;;;7.85;100.00
1616;BME280;801;47.982;7.810;2023-03-25T05:06:15;98329.88;;;7.79;100.00
1616;BME280;801;47.982;7.810;2023-03-25T05:08:42;98324.97;;;7.93;100.00
1616;BME280;801;47.982;7.810;2023-03-25T05:11:09;98341.50;;;7.90;100.00
1616;BME280;801;47.982;7.810;2023-03-25T05:13:35;98331.66;;;7.74;100.00
1616;BME280;801;47.982;7.810;2023-03-25T05:16:02;98324.72;;;7.73;100.00
1616;BME280;801;47.982;7.810;2023-03-25T05:18:28;98330.16;;;7.61;100.00
1616;BME280;801;47.982;7.810;2023-03-25T05:20:56;98327.44;;;7.78;100.00
1616;BME280;801;47.982;7.810;2023-03-25T05:23:25;98343.91;;;7.69;100.00
1616;BME280;801;47.982;7.810;2023-03-25T05:25:51;98334.41;;;7.79;100.00
1616;BME280;801;47.982;7.810;2023-03-25T05:28:18;98334.47;;;7.84;100.00
1616;BME280;801;47.982;7.810;2023-03-25T05:30:45;98333.34;;;7.80;100.00
1616;BME280;801;47.982;7.810;2023-03-25T05:33:14;98335.84;;;7.86;100.00
1616;BME280;801;47.982;7.810;2023-03-25T05:35:42;98325.44;;;7.90;100.00
1616;BME280;801;47.982;7.810;2023-03-25T05:38:10;98346.22;;;7.83;100.00
1616;BME280;801;47.982;7.810;2023-03-25T05:40:38;98331.63;;;7.90;100.00
1616;BME280;801;47.982;7.810;2023-03-25T05:43:05;98338.75;;;7.85;100.00
1616;BME280;801;47.982;7.810;2023-03-25T05:45:31;98335.56;;;7.88;100.00
1616;BME280;801;47.982;7.810;2023-03-25T05:48:00;98337.97;;;8.06;100.00
1616;BME280;801;47.982;7.810;2023-03-25T05:50:26;98328.44;;;8.16;100.00
1616;BME280;801;47.982;7.810;2023-03-25T05:52:53;98333.09;;;8.03;100.00
1616;BME280;801;47.982;7.810;2023-03-25T05:55:23;98323.91;;;8.21;100.00
1616;BME280;801;47.982;7.810;2023-03-25T05:57:50;98318.53;;;8.16;100.00
1616;BME280;801;47.982;7.810;2023-03-25T06:00:17;98323.91;;;8.21;100.00
1616;BME280;801;47.982;7.810;2023-03-25T06:02:45;98344.69;;;8.09;100.00
1616;BME280;801;47.982;7.810;2023-03-25T06:05:14;98347.22;;;8.21;100.00
1616;BME280;801;47.982;7.810;2023-03-25T06:07:41;98328.53;;;8.26;100.00
1616;BME280;801;47.982;7.810;2023-03-25T06:10:09;98313.56;;;8.30;100.00
1616;BME280;801;47.982;7.810;2023-03-25T06:12:37;98312.88;;;8.40;100.00
1616;BME280;801;47.982;7.810;2023-03-25T06:15:06;98309.91;;;8.36;100.00
1616;BME280;801;47.982;7.810;2023-03-25T06:17:33;98322.78;;;8.39;100.00
1616;BME280;801;47.982;7.810;2023-03-25T06:20:03;98321.31;;;8.48;100.00
1616;BME280;801;47.982;7.810;2023-03-25T06:22:36;98315.56;;;8.40;100.00
1616;BME280;801;47.982;7.810;2023-03-25T06:25:03;98315.44;;;8.51;100.00
1616;BME280;801;47.982;7.810;2023-03-25T06:27:29;98327.50;;;8.54;100.00
1616;BME280;801;47.982;7.810;2023-03-25T06:30:00;98345.66;;;8.47;100.00
1616;BME280;801;47.982;7.810;2023-03-25T06:32:27;98345.00;;;8.62;100.00
1616;BME280;801;47.982;7.810;2023-03-25T06:34:53;98313.41;;;8.64;100.00
1616;BME280;801;47.982;7.810;2023-03-25T06:37:20;98322.59;;;8.73;100.00
1616;BME280;801;47.982;7.810;2023-03-25T06:39:50;98310.16;;;8.89;100.00
1616;BME280;801;47.982;7.810;2023-03-25T06:42:23;98318.81;;;8.69;100.00
1616;BME280;801;47.982;7.810;2023-03-25T06:44:49;98319.44;;;8.81;100.00
1616;BME280;801;47.982;7.810;2023-03-25T06:47:18;98328.03;;;8.83;100.00
1616;BME280;801;47.982;7.810;2023-03-25T06:49:44;98329.00;;;8.72;100.00
1616;BME280;801;47.982;7.810;2023-03-25T06:52:11;98333.41;;;8.83;100.00
1616;BME280;801;47.982;7.810;2023-03-25T06:54:39;98325.34;;;8.83;100.00
1616;BME280;801;47.982;7.810;2023-03-25T06:57:06;98315.50;;;8.89;100.00
1616;BME280;801;47.982;7.810;2023-03-25T06:59:33;98315.78;;;8.92;100.00
1616;BME280;801;47.982;7.810;2023-03-25T07:01:59;98313.38;;;8.91;100.00
1616;BME280;801;47.982;7.810;2023-03-25T07:04:27;98316.38;;;9.00;100.00
1616;BME280;801;47.982;7.810;2023-03-25T07:06:53;98311.47;;;8.86;100.00
1616;BME280;801;47.982;7.810;2023-03-25T07:09:20;98318.53;;;8.98;100.00
1616;BME280;801;47.982;7.810;2023-03-25T07:11:46;98298.59;;;8.88;100.00
1616;BME280;801;47.982;7.810;2023-03-25T07:14:13;98315.75;;;8.87;100.00
1616;BME280;801;47.982;7.810;2023-03-25T07:16:40;98309.41;;;8.99;100.00
1616;BME280;801;47.982;7.810;2023-03-25T07:19:06;98314.75;;;8.93;100.00
1616;BME280;801;47.982;7.810;2023-03-25T07:21:34;98305.19;;;9.08;100.00
1616;BME280;801;47.982;7.810;2023-03-25T07:24:00;98319.69;;;9.12;100.00
1616;BME280;801;47.982;7.810;2023-03-25T07:26:27;98313.22;;;9.08;100.00
1616;BME280;801;47.982;7.810;2023-03-25T07:28:53;98299.91;;;9.18;100.00
1616;BME280;801;47.982;7.810;2023-03-25T07:31:20;98307.38;;;9.16;100.00
1616;BME280;801;47.982;7.810;2023-03-25T07:33:46;98295.38;;;9.24;100.00
1616;BME280;801;47.982;7.810;2023-03-25T07:36:13;98314.09;;;9.19;100.00
1616;BME280;801;47.982;7.810;2023-03-25T07:38:40;98305.22;;;9.13;100.00
1616;BME280;801;47.982;7.810;2023-03-25T07:41:09;98297.91;;;9.03;100.00
1616;BME280;801;47.982;7.810;2023-03-25T07:43:36;98297.13;;;9.08;100.00
1616;BME280;801;47.982;7.810;2023-03-25T07:46:03;98320.44;;;9.02;100.00
1616;BME280;801;47.982;7.810;2023-03-25T07:48:30;98315.63;;;9.04;100.00
1616;BME280;801;47.982;7.810;2023-03-25T07:50:56;98316.34;;;8.94;100.00
1616;BME280;801;47.982;7.810;2023-03-25T07:53:23;98312.84;;;8.94;100.00
1616;BME280;801;47.982;7.810;2023-03-25T07:55:51;98308.63;;;9.03;100.00
1616;BME280;801;47.982;7.810;2023-03-25T07:58:18;98310.41;;;8.92;100.00
1616;BME280;801;47.982;7.810;2023-03-25T08:00:45;98304.59;;;9.01;100.00
1616;BME280;801;47.982;7.810;2023-03-25T08:03:12;98311.50;;;8.91;100.00
1616;BME280;801;47.982;7.810;2023-03-25T08:05:44;98330.88;;;9.04;100.00
1616;BME280;801;47.982;7.810;2023-03-25T08:08:11;98334.75;;;9.18;100.00
1616;BME280;801;47.982;7.810;2023-03-25T08:10:38;98329.88;;;9.15;100.00
1616;BME280;801;47.982;7.810;2023-03-25T08:13:08;98323.00;;;9.24;100.00
1616;BME280;801;47.982;7.810;2023-03-25T08:15:34;98335.88;;;9.22;100.00
1616;BME280;801;47.982;7.810;2023-03-25T08:18:01;98368.63;;;9.29;100.00
1616;BME280;801;47.982;7.810;2023-03-25T08:20:29;98324.69;;;9.35;100.00
1616;BME280;801;47.982;7.810;2023-03-25T08:22:55;98370.16;;;9.20;100.00
1616;BME280;801;47.982;7.810;2023-03-25T08:25:22;98336.47;;;9.34;100.00
1616;BME280;801;47.982;7.810;2023-03-25T08:27:50;98330.06;;;9.41;100.00
1616;BME280;801;47.982;7.810;2023-03-25T08:30:17;98337.00;;;9.31;100.00
1616;BME280;801;47.982;7.810;2023-03-25T08:32:44;98348.06;;;9.40;100.00
1616;BME280;801;47.982;7.810;2023-03-25T08:35:11;98359.78;;;8.97;100.00
1616;BME280;801;47.982;7.810;2023-03-25T08:37:38;98348.72;;;9.20;100.00
1616;BME280;801;47.982;7.810;2023-03-25T08:40:05;98344.03;;;9.43;100.00
1616;BME280;801;47.982;7.810;2023-03-25T08:42:33;98321.47;;;9.39;100.00
1616;BME280;801;47.982;7.810;2023-03-25T08:44:59;98339.78;;;9.09;100.00
1616;BME280;801;47.982;7.810;2023-03-25T08:47:27;98345.63;;;9.06;100.00
1616;BME280;801;47.982;7.810;2023-03-25T08:49:53;98330.41;;;9.12;100.00
1616;BME280;801;47.982;7.810;2023-03-25T08:52:20;98348.50;;;8.94;100.00
1616;BME280;801;47.982;7.810;2023-03-25T08:54:47;98351.75;;;9.02;100.00
1616;BME280;801;47.982;7.810;2023-03-25T08:57:13;98369.91;;;8.89;100.00
1616;BME280;801;47.982;7.810;2023-03-25T08:59:40;98353.63;;;8.96;100.00
1616;BME280;801;47.982;7.810;2023-03-25T09:02:08;98362.28;;;8.76;100.00
1616;BME280;801;47.982;7.810;2023-03-25T09:04:36;98360.81;;;8.63;100.00
1616;BME280;801;47.982;7.810;2023-03-25T09:07:03;98357.47;;;8.78;100.00
1616;BME280;801;47.982;7.810;2023-03-25T09:09:31;98344.34;;;8.82;100.00
1616;BME280;801;47.982;7.810;2023-03-25T09:11:59;98351.41;;;8.61;100.00
1616;BME280;801;47.982;7.810;2023-03-25T09:14:26;98339.97;;;8.98;100.00
1616;BME280;801;47.982;7.810;2023-03-25T09:16:52;98351.75;;;9.02;100.00
1616;BME280;801;47.982;7.810;2023-03-25T09:19:19;98355.00;;;9.04;100.00
1616;BME280;801;47.982;7.810;2023-03-25T09:21:46;98336.78;;;9.06;100.00
1616;BME280;801;47.982;7.810;2023-03-25T09:24:13;98348.44;;;9.22;100.00
1616;BME280;801;47.982;7.810;2023-03-25T09:26:39;98342.53;;;9.20;100.00
1616;BME280;801;47.982;7.810;2023-03-25T09:29:06;98332.84;;;9.13;100.00
1616;BME280;801;47.982;7.810;2023-03-25T09:31:32;98342.78;;;9.18;100.00
1616;BME280;801;47.982;7.810;2023-03-25T09:34:00;98355.19;;;9.24;100.00
1616;BME280;801;47.982;7.810;2023-03-25T09:36:27;98363.84;;;9.37;100.00
1616;BME280;801;47.982;7.810;2023-03-25T09:38:54;98361.13;;;9.31;100.00
1616;BME280;801;47.982;7.810;2023-03-25T09:41:39;98364.75;;;9.52;100.00
1616;BME280;801;47.982;7.810;2023-03-25T09:44:12;98360.53;;;9.24;100.00
1616;BME280;801;47.982;7.810;2023-03-25T09:46:40;98381.66;;;9.16;100.00
1616;BME280;801;47.982;7.810;2023-03-25T09:49:11;98368.63;;;9.29;100.00
1616;BME280;801;47.982;7.810;2023-03-25T09:51:42;98383.47;;;9.10;100.00
1616;BME280;801;47.982;7.810;2023-03-25T09:54:17;98373.56;;;9.10;100.00
1616;BME280;801;47.982;7.810;2023-03-25T09:56:46;98385.94;;;9.17;100.00
1616;BME280;801;47.982;7.810;2023-03-25T09:59:16;98398.13;;;9.29;100.00
1616;BME280;801;47.982;7.810;2023-03-25T10:01:48;98390.97;;;9.40;100.00
1616;BME280;801;47.982;7.810;2023-03-25T10:04:39;98403.25;;;9.73;100.00
1616;BME280;801;47.982;7.810;2023-03-25T10:07:19;98401.03;;;9.60;100.00
1616;BME280;801;47.982;7.810;2023-03-25T10:09:53;98394.56;;;9.56;100.00
1616;BME280;801;47.982;7.810;2023-03-25T10:12:31;98389.91;;;9.89;100.00
1616;BME280;801;47.982;7.810;2023-03-25T10:15:11;98403.44;;;10.09;100.00
1616;BME280;801;47.982;7.810;2023-03-25T10:17:47;98398.09;;;10.14;100.00
1616;BME280;801;47.982;7.810;2023-03-25T10:20:24;98393.28;;;10.27;100.00
1616;BME280;801;47.982;7.810;2023-03-25T10:23:02;98418.28;;;10.27;100.00
1616;BME280;801;47.982;7.810;2023-03-25T10:25:35;98415.78;;;10.78;100.00
1616;BME280;801;47.982;7.810;2023-03-25T10:28:06;98413.91;;;10.74;100.00
1616;BME280;801;47.982;7.810;2023-03-25T10:30:40;98422.47;;;10.66;100.00
1616;BME280;801;47.982;7.810;2023-03-25T10:33:15;98408.53;;;10.74;100.00
1616;BME280;801;47.982;7.810;2023-03-25T10:35:46;98406.88;;;10.63;100.00
1616;BME280;801;47.982;7.810;2023-03-25T10:38:16;98416.06;;;10.72;100.00
1616;BME280;801;47.982;7.810;2023-03-25T10:40:47;98419.31;;;10.94;100.00
1616;BME280;801;47.982;7.810;2023-03-25T10:43:20;98395.13;;;11.30;100.00
1616;BME280;801;47.982;7.810;2023-03-25T10:45:50;98406.16;;;11.24;100.00
1616;BME280;801;47.982;7.810;2023-03-25T10:48:20;98383.28;;;11.47;100.00
1616;BME280;801;47.982;7.810;2023-03-25T10:50:51;98398.28;;;11.83;100.00
1616;BME280;801;47.982;7.810;2023-03-25T10:53:23;98400.94;;;12.09;100.00
1616;BME280;801;47.982;7.810;2023-03-25T10:55:55;98382.66;;;11.80;100.00
1616;BME280;801;47.982;7.810;2023-03-25T10:58:23;98388.66;;;11.41;100.00
1616;BME280;801;47.982;7.810;2023-03-25T11:00:49;98397.81;;;11.05;100.00
1616;BME280;801;47.982;7.810;2023-03-25T11:03:19;98390.53;;;11.20;100.00
1616;BME280;801;47.982;7.810;2023-03-25T11:05:48;98378.16;;;11.45;100.00
1616;BME280;801;47.982;7.810;2023-03-25T11:08:15;98382.72;;;11.60;100.00
1616;BME280;801;47.982;7.810;2023-03-25T11:10:46;98393.06;;;12.28;100.00
1616;BME280;801;47.982;7.810;2023-03-25T11:13:16;98377.13;;;12.32;100.00
1616;BME280;801;47.982;7.810;2023-03-25T11:15:46;98376.16;;;12.07;100.00
1616;BME280;801;47.982;7.810;2023-03-25T11:18:18;98373.19;;;12.63;100.00
1616;BME280;801;47.982;7.810;2023-03-25T11:20:48;98371.81;;;13.05;100.00
1616;BME280;801;47.982;7.810;2023-03-25T11:23:20;98372.84;;;12.31;100.00
1616;BME280;801;47.982;7.810;2023-03-25T11:25:49;98393.81;;;12.39;100.00
1616;BME280;801;47.982;7.810;2023-03-25T11:28:19;98370.41;;;12.79;100.00
1616;BME280;801;47.982;7.810;2023-03-25T11:31:11;98366.41;;;13.11;100.00
1616;BME280;801;47.982;7.810;2023-03-25T11:33:40;98363.75;;;13.40;100.00
1616;BME280;801;47.982;7.810;2023-03-25T11:36:12;98369.94;;;13.06;96.85
1616;BME280;801;47.982;7.810;2023-03-25T11:38:39;98360.91;;;13.79;92.09
1616;BME280;801;47.982;7.810;2023-03-25T11:41:06;98369.59;;;13.13;88.35
1616;BME280;801;47.982;7.810;2023-03-25T11:43:34;98427.44;;;12.52;88.78
1616;BME280;801;47.982;7.810;2023-03-25T11:46:07;98374.94;;;12.39;89.37
1616;BME280;801;47.982;7.810;2023-03-25T11:48:36;98377.16;;;12.27;91.47
1616;BME280;801;47.982;7.810;2023-03-25T11:51:07;98388.25;;;12.20;96.24
1616;BME280;801;47.982;7.810;2023-03-25T11:53:36;98378.63;;;11.83;100.00
1616;BME280;801;47.982;7.810;2023-03-25T11:56:03;98381.25;;;12.14;100.00
1616;BME280;801;47.982;7.810;2023-03-25T11:58:35;98403.69;;;11.89;100.00
1616;BME280;801;47.982;7.810;2023-03-25T12:01:04;98387.19;;;12.11;100.00
1616;BME280;801;47.982;7.810;2023-03-25T12:03:33;98387.97;;;12.21;100.00
1616;BME280;801;47.982;7.810;2023-03-25T12:06:04;98377.31;;;12.51;100.00
1616;BME280;801;47.982;7.810;2023-03-25T12:08:41;98383.84;;;12.34;100.00
1616;BME280;801;47.982;7.810;2023-03-25T12:11:10;98394.69;;;12.19;98.14
1616;BME280;801;47.982;7.810;2023-03-25T12:14:02;98374.97;;;12.34;97.27
1616;BME280;801;47.982;7.810;2023-03-25T12:16:37;98376.94;;;12.67;96.36
1616;BME280;801;47.982;7.810;2023-03-25T12:19:15;98376.63;;;13.14;94.72
1616;BME280;801;47.982;7.810;2023-03-25T12:22:03;98379.06;;;13.15;92.43
1616;BME280;801;47.982;7.810;2023-03-25T12:24:48;98367.59;;;13.87;88.40
1616;BME280;801;47.982;7.810;2023-03-25T12:27:33;98360.88;;;13.84;90.90
1616;BME280;801;47.982;7.810;2023-03-25T12:30:14;98350.22;;;13.93;91.93
1616;BME280;801;47.982;7.810;2023-03-25T12:32:48;98356.75;;;13.92;90.69
1616;BME280;801;47.982;7.810;2023-03-25T12:35:29;98350.22;;;13.93;87.00
1616;BME280;801;47.982;7.810;2023-03-25T12:38:25;98336.84;;;14.07;85.13
1616;BME280;801;47.982;7.810;2023-03-25T12:41:05;98370.34;;;13.23;86.68
1616;BME280;801;47.982;7.810;2023-03-25T12:43:45;98362.53;;;13.80;86.31
1616;BME280;801;47.982;7.810;2023-03-25T12:46:28;98362.94;;;13.39;89.65
1616;BME280;801;47.982;7.810;2023-03-25T12:49:06;98364.38;;;13.85;88.89
1616;BME280;801;47.982;7.810;2023-03-25T12:51:43;98356.81;;;14.11;89.08
1616;BME280;801;47.982;7.810;2023-03-25T12:54:38;98364.66;;;13.83;88.88
1616;BME280;801;47.982;7.810;2023-03-25T12:57:15;98359.16;;;13.40;91.87
1616;BME280;801;47.982;7.810;2023-03-25T12:59:53;98379.13;;;13.39;91.76
1616;BME280;801;47.982;7.810;2023-03-25T13:02:43;98355.09;;;13.08;95.20
1616;BME280;801;47.982;7.810;2023-03-25T13:05:18;98343.84;;;12.96;96.42
1616;BME280;801;47.982;7.810;2023-03-25T13:07:50;98358.97;;;12.92;98.27
1616;BME280;801;47.982;7.810;2023-03-25T13:10:20;98343.31;;;12.60;99.19
1616;BME280;801;47.982;7.810;2023-03-25T13:12:49;98356.19;;;12.23;100.00
1616;BME280;801;47.982;7.810;2023-03-25T13:15:20;98375.53;;;12.31;100.00
1616;BME280;801;47.982;7.810;2023-03-25T13:17:52;98363.53;;;11.87;100.00
1616;BME280;801;47.982;7.810;2023-03-25T13:20:21;98374.88;;;11.74;100.00
1616;BME280;801;47.982;7.810;2023-03-25T13:22:51;98365.50;;;11.61;100.00
1616;BME280;801;47.982;7.810;2023-03-25T13:25:26;98346.66;;;11.56;100.00
1616;BME280;801;47.982;7.810;2023-03-25T13:27:56;98369.66;;;12.23;100.00
1616;BME280;801;47.982;7.810;2023-03-25T13:30:28;98359.38;;;12.31;100.00
1616;BME280;801;47.982;7.810;2023-03-25T13:33:00;98371.22;;;12.79;100.00
1616;BME280;801;47.982;7.810;2023-03-25T13:35:36;98365.38;;;13.01;100.00
1616;BME280;801;47.982;7.810;2023-03-25T13:38:10;98373.44;;;12.12;100.00
1616;BME280;801;47.982;7.810;2023-03-25T13:40:43;98372.41;;;12.08;100.00
1616;BME280;801;47.982;7.810;2023-03-25T13:43:19;98364.91;;;11.90;100.00
1616;BME280;801;47.982;7.810;2023-03-25T13:45:50;98363.09;;;11.54;100.00
1616;BME280;801;47.982;7.810;2023-03-25T13:48:26;98380.53;;;11.77;100.00
1616;BME280;801;47.982;7.810;2023-03-25T13:51:02;98369.47;;;11.94;100.00